Time;durP1;ratioP1;P1;durP2;ratioP2;P2;SDS_P1;SDS_P2;PMS_P1;PMS_P2;Temp;Humidity;BMP_temperature;BMP_pressure;BME280_temperature;BME280_humidity;BME280_pressure;Samples;Min_cycle;Max_cycle;Signal;HPM_P1;HPM_P2
2023/09/26 00:00:51;;;;;;;;;;;;;;;24.31;44.21;101285.19;7400083;19;1209;-37
2023/09/26 00:03:19;;;;;;;;;;;;;;;24.39;44.01;101307.75;7398147;19;1863;-37
2023/09/26 00:05:52;;;;;;;;;;;;;;;24.30;44.18;101307.84;7384909;19;1467;-37
2023/09/26 00:08:20;;;;;;;;;;;;;;;24.25;44.35;101313.69;7398176;19;1802;-37
2023/09/26 00:10:49;;;;;;;;;;;;;;;24.33;44.37;101310.22;7399652;19;1356;-37
2023/09/26 00:13:17;;;;;;;;;;;;;;;24.31;44.07;101304.97;7396454;19;1584;-37
2023/09/26 00:15:45;;;;;;;;;;;;;;;24.40;43.75;101312.13;7398575;19;1202;-37
2023/09/26 00:18:14;;;;;;;;;;;;;;;24.36;43.85;101299.94;7397456;19;1736;-37
2023/09/26 00:20:42;;;;;;;;;;;;;;;24.35;43.64;101294.69;7398198;19;1728;-37
2023/09/26 00:23:13;;;;;;;;;;;;;;;24.29;43.60;101298.88;7397558;19;1845;-37
2023/09/26 00:25:42;;;;;;;;;;;;;;;24.24;44.07;101300.34;7398113;19;1951;-37
2023/09/26 00:28:10;;;;;;;;;;;;;;;24.29;43.96;101311.53;7400034;19;1225;-37
2023/09/26 00:30:38;;;;;;;;;;;;;;;24.27;43.94;101279.25;7398977;19;1639;-37
2023/09/26 00:33:06;;;;;;;;;;;;;;;24.24;43.78;101284.97;7397945;19;1680;-37
2023/09/26 00:35:35;;;;;;;;;;;;;;;24.22;44.28;101282.44;7398675;19;1578;-37
2023/09/26 00:38:03;;;;;;;;;;;;;;;24.20;44.09;101287.16;7397975;19;1590;-37
2023/09/26 00:40:34;;;;;;;;;;;;;;;24.15;44.39;101285.91;7397944;19;1609;-37
2023/09/26 00:43:03;;;;;;;;;;;;;;;24.19;44.00;101282.75;7396879;19;1849;-37
2023/09/26 00:45:31;;;;;;;;;;;;;;;24.22;43.88;101282.44;7397799;19;1803;-37
2023/09/26 00:48:01;;;;;;;;;;;;;;;24.24;44.07;101278.75;7396528;19;1791;-37
2023/09/26 00:50:30;;;;;;;;;;;;;;;24.18;44.02;101291.03;7397436;19;1657;-37
2023/09/26 00:52:58;;;;;;;;;;;;;;;24.15;44.02;101275.97;7396769;19;1542;-37
2023/09/26 00:55:26;;;;;;;;;;;;;;;24.17;43.89;101276.66;7396280;19;1676;-37
2023/09/26 00:57:58;;;;;;;;;;;;;;;24.14;43.94;101279.66;7397543;19;1486;-37
2023/09/26 01:00:27;;;;;;;;;;;;;;;24.07;44.29;101281.28;7396683;19;1844;-37
2023/09/26 01:02:56;;;;;;;;;;;;;;;24.12;44.30;101280.84;7395925;19;1859;-37
2023/09/26 01:05:24;;;;;;;;;;;;;;;24.16;43.86;101293.03;7382486;19;1396;-37
2023/09/26 01:07:52;;;;;;;;;;;;;;;24.18;43.80;101283.75;7396813;19;1482;-37
2023/09/26 01:10:21;;;;;;;;;;;;;;;24.13;43.82;101296.91;7398036;19;1376;-37
2023/09/26 01:12:49;;;;;;;;;;;;;;;24.06;43.79;101293.13;7396484;19;1629;-37
2023/09/26 01:15:36;;;;;;;;;;;;;;;23.95;44.03;101279.84;7397879;19;1430;-37
2023/09/26 01:18:09;;;;;;;;;;;;;;;23.94;44.74;101299.78;7395858;19;1811;-37
2023/09/26 01:20:37;;;;;;;;;;;;;;;24.03;44.45;101304.22;7397067;19;1589;-39
2023/09/26 01:23:07;;;;;;;;;;;;;;;24.05;44.24;101294.09;7393143;19;1873;-37
2023/09/26 01:25:40;;;;;;;;;;;;;;;24.02;44.22;101313.34;7394499;19;1585;-38
2023/09/26 01:28:08;;;;;;;;;;;;;;;24.09;44.04;101298.19;7396496;19;1387;-37
2023/09/26 01:30:37;;;;;;;;;;;;;;;24.08;43.86;101312.72;7393684;19;1971;-37
2023/09/26 01:33:08;;;;;;;;;;;;;;;23.92;44.26;101297.22;7395399;19;1485;-37
2023/09/26 01:35:36;;;;;;;;;;;;;;;23.91;44.47;101295.50;7395352;19;1386;-37
2023/09/26 01:38:04;;;;;;;;;;;;;;;24.11;44.11;101304.28;7395869;19;1459;-37
2023/09/26 01:40:33;;;;;;;;;;;;;;;23.96;44.28;101309.41;7395702;19;1526;-37
2023/09/26 01:43:04;;;;;;;;;;;;;;;23.92;45.17;101307.19;7393256;19;1856;-37
2023/09/26 01:45:32;;;;;;;;;;;;;;;23.97;44.59;101304.84;7395390;19;1568;-37
2023/09/26 01:48:04;;;;;;;;;;;;;;;24.08;43.45;101291.09;7394546;19;1573;-37
2023/09/26 01:50:32;;;;;;;;;;;;;;;23.99;44.14;101308.25;7394147;19;1598;-37
2023/09/26 01:53:00;;;;;;;;;;;;;;;23.87;44.75;101304.94;7395752;19;1352;-38
2023/09/26 01:55:29;;;;;;;;;;;;;;;23.94;44.26;101295.22;7395653;19;1655;-37
2023/09/26 01:57:57;;;;;;;;;;;;;;;24.02;43.97;101305.25;7395438;19;1557;-37
2023/09/26 02:00:29;;;;;;;;;;;;;;;24.08;43.78;101312.72;7394610;19;1439;-37
2023/09/26 02:02:57;;;;;;;;;;;;;;;24.06;43.40;101303.94;7394871;19;1856;-37
2023/09/26 02:05:26;;;;;;;;;;;;;;;24.09;43.53;101310.88;7380339;19;1398;-37
2023/09/26 02:07:54;;;;;;;;;;;;;;;23.98;43.45;101317.38;7396131;19;1360;-37
2023/09/26 02:10:22;;;;;;;;;;;;;;;23.84;44.24;101293.63;7394325;19;1534;-37
2023/09/26 02:12:51;;;;;;;;;;;;;;;23.78;44.19;101309.41;7395667;19;1585;-37
2023/09/26 02:15:20;;;;;;;;;;;;;;;23.88;44.55;101312.03;7395534;19;1501;-37
2023/09/26 02:17:51;;;;;;;;;;;;;;;23.92;44.31;101323.41;7393963;19;1422;-37
2023/09/26 02:20:20;;;;;;;;;;;;;;;23.94;44.23;101310.59;7393990;19;1329;-37
2023/09/26 02:22:49;;;;;;;;;;;;;;;23.86;44.22;101324.00;7394457;19;1849;-37
2023/09/26 02:25:18;;;;;;;;;;;;;;;23.97;43.77;101321.06;7395262;19;1423;-37
2023/09/26 02:27:47;;;;;;;;;;;;;;;24.02;43.41;101343.91;7395865;19;1046;-37
2023/09/26 02:30:16;;;;;;;;;;;;;;;24.02;43.23;101324.16;7394995;19;1791;-37
2023/09/26 02:32:45;;;;;;;;;;;;;;;24.01;43.12;101308.94;7393912;19;1554;-37
2023/09/26 02:35:16;;;;;;;;;;;;;;;24.01;43.45;101327.84;7392859;19;1406;-37
2023/09/26 02:37:45;;;;;;;;;;;;;;;23.89;43.54;101326.38;7401504;19;1511;-37
2023/09/26 02:40:14;;;;;;;;;;;;;;;23.84;43.72;101315.22;7400111;19;1602;-37
2023/09/26 02:42:43;;;;;;;;;;;;;;;23.88;43.41;101320.16;7402823;19;1651;-37
2023/09/26 02:45:12;;;;;;;;;;;;;;;23.81;43.86;101332.56;7400521;19;1715;-37
2023/09/26 02:47:41;;;;;;;;;;;;;;;23.75;45.33;101333.13;7401338;19;1673;-37
2023/09/26 02:50:09;;;;;;;;;;;;;;;23.87;44.04;101337.34;7400737;19;1430;-37
2023/09/26 02:52:42;;;;;;;;;;;;;;;23.86;43.85;101345.63;7401165;19;1570;-37
2023/09/26 02:55:11;;;;;;;;;;;;;;;23.83;43.61;101322.44;7400045;19;1605;-37
2023/09/26 02:57:39;;;;;;;;;;;;;;;23.83;43.32;101341.34;7398428;19;2359;-37
2023/09/26 03:00:16;;;;;;;;;;;;;;;23.86;43.37;101349.16;7399765;19;2361;-37
2023/09/26 03:02:45;;;;;;;;;;;;;;;23.85;43.35;101352.84;7400128;19;1333;-37
2023/09/26 03:05:13;;;;;;;;;;;;;;;23.80;43.43;101326.31;7384401;19;1849;-37
2023/09/26 03:07:44;;;;;;;;;;;;;;;23.78;43.37;101339.13;7399882;19;1714;-37
2023/09/26 03:10:13;;;;;;;;;;;;;;;23.81;43.51;101344.22;7400077;19;1503;-37
2023/09/26 03:12:46;;;;;;;;;;;;;;;23.81;43.68;101332.56;7399438;19;1374;-37
2023/09/26 03:15:14;;;;;;;;;;;;;;;23.77;43.61;101336.53;7400903;19;1659;-37
2023/09/26 03:17:42;;;;;;;;;;;;;;;23.60;44.19;101330.13;7399840;19;1258;-37
2023/09/26 03:20:15;;;;;;;;;;;;;;;23.62;44.64;101344.31;7400615;19;1521;-37
2023/09/26 03:22:45;;;;;;;;;;;;;;;23.73;44.19;101340.53;7399876;19;1424;-37
2023/09/26 03:25:14;;;;;;;;;;;;;;;23.77;43.69;101340.09;7397235;19;1861;-37
2023/09/26 03:27:43;;;;;;;;;;;;;;;23.74;43.57;101348.50;7400433;19;1206;-37
2023/09/26 03:30:11;;;;;;;;;;;;;;;23.76;43.17;101349.19;7400203;19;1470;-37
2023/09/26 03:32:39;;;;;;;;;;;;;;;23.74;43.57;101343.09;7399324;19;1500;-37
2023/09/26 03:35:09;;;;;;;;;;;;;;;23.69;43.21;101345.41;7399758;19;1478;-37
2023/09/26 03:37:37;;;;;;;;;;;;;;;23.78;43.35;101340.97;7398564;19;1561;-37
2023/09/26 03:40:08;;;;;;;;;;;;;;;23.69;43.74;101333.75;7398721;19;1502;-37
2023/09/26 03:42:37;;;;;;;;;;;;;;;23.67;43.58;101352.81;7399288;19;1550;-37
2023/09/26 03:45:06;;;;;;;;;;;;;;;23.76;43.56;101341.09;7396216;19;1899;-38
2023/09/26 03:47:35;;;;;;;;;;;;;;;23.79;43.66;101345.38;7397389;19;1944;-37
2023/09/26 03:50:03;;;;;;;;;;;;;;;23.56;44.05;101326.88;7398865;19;1392;-37
2023/09/26 03:52:31;;;;;;;;;;;;;;;23.71;43.85;101347.94;7397090;19;1300;-37
2023/09/26 03:55:00;;;;;;;;;;;;;;;23.70;44.06;101348.97;7399909;19;1244;-37
2023/09/26 03:57:32;;;;;;;;;;;;;;;23.61;43.88;101348.84;7400530;19;1151;-37
2023/09/26 04:00:00;;;;;;;;;;;;;;;23.54;44.21;101339.69;7399704;19;1359;-37
2023/09/26 04:02:29;;;;;;;;;;;;;;;23.68;43.74;101354.50;7397765;19;1392;-37
2023/09/26 04:04:57;;;;;;;;;;;;;;;23.76;43.63;101345.66;7397139;19;1864;-37
2023/09/26 04:07:28;;;;;;;;;;;;;;;23.77;43.30;101342.81;7384396;19;1523;-37
2023/09/26 04:09:56;;;;;;;;;;;;;;;23.80;43.45;101345.22;7397747;19;1395;-37
2023/09/26 04:12:24;;;;;;;;;;;;;;;23.65;44.80;101353.97;7398287;19;1364;-37
2023/09/26 04:14:55;;;;;;;;;;;;;;;23.86;44.35;101356.44;7400447;19;1261;-37
2023/09/26 04:17:23;;;;;;;;;;;;;;;23.85;43.98;101360.13;7400176;19;1667;-37
2023/09/26 04:19:52;;;;;;;;;;;;;;;23.77;44.60;101387.84;7399247;19;1720;-37
2023/09/26 04:22:20;;;;;;;;;;;;;;;23.70;44.97;101349.81;7399354;19;1661;-37
2023/09/26 04:24:49;;;;;;;;;;;;;;;23.45;43.20;101358.63;7397858;19;1845;-37
2023/09/26 04:27:17;;;;;;;;;;;;;;;23.38;43.03;101358.41;7398809;19;1609;-37
2023/09/26 04:29:45;;;;;;;;;;;;;;;23.32;43.13;101354.44;7397003;19;1773;-37
2023/09/26 04:32:16;;;;;;;;;;;;;;;23.36;42.97;101355.00;7397111;19;1625;-37
2023/09/26 04:34:45;;;;;;;;;;;;;;;23.21;42.68;101358.16;7384881;19;1384;-37
2023/09/26 04:37:13;;;;;;;;;;;;;;;23.13;42.74;101354.53;7398712;19;1379;-37
2023/09/26 04:39:41;;;;;;;;;;;;;;;23.15;42.70;101347.13;7392350;19;1290;-37
2023/09/26 04:42:09;;;;;;;;;;;;;;;23.14;42.84;101358.91;7394487;19;1344;-37
2023/09/26 04:44:38;;;;;;;;;;;;;;;23.08;42.74;101364.91;7393504;19;1861;-37
2023/09/26 04:47:06;;;;;;;;;;;;;;;23.12;42.58;101364.47;7397430;19;1573;-37
2023/09/26 04:49:39;;;;;;;;;;;;;;;23.10;42.60;101352.09;7398307;19;1646;-37
2023/09/26 04:52:07;;;;;;;;;;;;;;;23.12;42.68;101366.31;7395441;19;1530;-37
2023/09/26 04:54:36;;;;;;;;;;;;;;;23.11;42.82;101365.47;7389132;19;1554;-40
2023/09/26 04:57:06;;;;;;;;;;;;;;;23.16;42.75;101370.44;7391110;19;1825;-40
2023/09/26 04:59:34;;;;;;;;;;;;;;;23.08;42.83;101383.78;7393983;19;1309;-40
2023/09/26 05:02:03;;;;;;;;;;;;;;;23.13;43.04;101376.09;7391317;19;1397;-40
2023/09/26 05:04:31;;;;;;;;;;;;;;;23.05;43.02;101379.53;7394990;19;1846;-40
2023/09/26 05:07:02;;;;;;;;;;;;;;;23.03;43.05;101376.97;7383223;19;1344;-40
2023/09/26 05:09:30;;;;;;;;;;;;;;;23.13;43.20;101389.59;7397184;19;1388;-40
2023/09/26 05:11:58;;;;;;;;;;;;;;;23.05;43.20;101389.50;7396674;19;1363;-40
2023/09/26 05:14:27;;;;;;;;;;;;;;;22.84;43.36;101377.88;7392604;19;1677;-40
2023/09/26 05:16:55;;;;;;;;;;;;;;;22.90;43.00;101381.84;7392143;19;1443;-37
2023/09/26 05:19:23;;;;;;;;;;;;;;;22.84;43.17;101377.03;7395327;19;1625;-39
2023/09/26 05:21:51;;;;;;;;;;;;;;;22.96;43.07;101391.16;7394094;19;1352;-37
2023/09/26 05:24:22;;;;;;;;;;;;;;;22.94;43.90;101385.94;7395381;19;1857;-37
2023/09/26 05:26:52;;;;;;;;;;;;;;;22.90;43.70;101387.25;7394997;19;2311;-37
2023/09/26 05:29:20;;;;;;;;;;;;;;;22.92;43.78;101397.84;7395778;19;1604;-37
2023/09/26 05:31:48;;;;;;;;;;;;;;;22.93;43.81;101383.38;7396809;19;1391;-37
2023/09/26 05:34:17;;;;;;;;;;;;;;;23.04;43.52;101388.66;7396195;19;1480;-37
2023/09/26 05:36:45;;;;;;;;;;;;;;;23.17;43.27;101389.16;7396707;19;1494;-37
2023/09/26 05:39:13;;;;;;;;;;;;;;;22.97;43.63;101387.50;7386208;19;1440;-37
2023/09/26 05:41:44;;;;;;;;;;;;;;;22.91;43.71;101383.53;7392376;19;1299;-37
2023/09/26 05:44:14;;;;;;;;;;;;;;;22.90;43.84;101389.94;7396440;19;1845;-37
2023/09/26 05:46:42;;;;;;;;;;;;;;;23.00;43.50;101396.16;7396632;19;1226;-37
2023/09/26 05:49:10;;;;;;;;;;;;;;;23.03;43.52;101401.25;7394487;19;1527;-37
2023/09/26 05:51:38;;;;;;;;;;;;;;;23.06;43.44;101407.34;7392790;19;1218;-37
2023/09/26 05:54:07;;;;;;;;;;;;;;;23.18;43.11;101401.66;7392588;19;1711;-37
2023/09/26 05:56:35;;;;;;;;;;;;;;;23.17;43.27;101409.88;7394894;19;1477;-37
2023/09/26 05:59:06;;;;;;;;;;;;;;;23.25;43.07;101415.41;7394628;19;1281;-37
2023/09/26 06:01:35;;;;;;;;;;;;;;;23.19;43.01;101400.63;7393543;19;1387;-37
2023/09/26 06:04:03;;;;;;;;;;;;;;;23.27;42.91;101410.69;7395503;19;1841;-37
2023/09/26 06:06:31;;;;;;;;;;;;;;;23.26;42.98;101416.22;7381561;19;1755;-38
2023/09/26 06:08:59;;;;;;;;;;;;;;;23.32;43.03;101407.56;7393910;19;1443;-37
2023/09/26 06:11:28;;;;;;;;;;;;;;;23.41;43.01;101401.25;7397320;19;1371;-37
2023/09/26 06:13:57;;;;;;;;;;;;;;;23.33;43.09;101407.41;7403487;19;1403;-37
2023/09/26 06:16:28;;;;;;;;;;;;;;;23.22;43.33;101397.66;7402107;19;1688;-37
2023/09/26 06:18:57;;;;;;;;;;;;;;;23.40;43.00;101413.91;7401515;19;1481;-37
2023/09/26 06:21:25;;;;;;;;;;;;;;;23.51;43.08;101401.22;7401612;19;1389;-37
2023/09/26 06:23:54;;;;;;;;;;;;;;;23.62;42.73;101393.78;7401849;19;1473;-41
2023/09/26 06:26:22;;;;;;;;;;;;;;;23.59;43.20;101414.81;7399849;19;1958;-41
2023/09/26 06:28:51;;;;;;;;;;;;;;;23.72;42.98;101418.03;7402205;19;1378;-41
2023/09/26 06:31:19;;;;;;;;;;;;;;;23.69;42.86;101404.81;7403879;19;1333;-65
2023/09/26 06:33:50;;;;;;;;;;;;;;;23.60;43.13;101408.44;7402233;19;1651;-41
2023/09/26 06:36:21;;;;;;;;;;;;;;;23.70;42.88;101413.78;7399340;19;1585;-41
2023/09/26 06:38:49;;;;;;;;;;;;;;;23.84;42.92;101417.84;7403783;19;1470;-41
2023/09/26 06:41:17;;;;;;;;;;;;;;;23.87;43.07;101414.81;7401589;19;1431;-41
2023/09/26 06:43:46;;;;;;;;;;;;;;;23.84;43.12;101412.44;7401937;19;1379;-40
2023/09/26 06:46:14;;;;;;;;;;;;;;;23.94;43.22;101422.19;7398653;19;1857;-41
2023/09/26 06:48:43;;;;;;;;;;;;;;;23.95;43.14;101423.00;7401900;19;1582;-41
2023/09/26 06:51:14;;;;;;;;;;;;;;;23.95;43.33;101409.50;7402164;19;1558;-41
2023/09/26 06:53:42;;;;;;;;;;;;;;;23.98;43.49;101414.63;7397558;19;1729;-40
2023/09/26 06:56:11;;;;;;;;;;;;;;;23.93;44.70;101412.34;7402353;19;1390;-41
2023/09/26 06:58:40;;;;;;;;;;;;;;;23.91;44.51;101414.38;7399620;19;1439;-41
2023/09/26 07:01:14;;;;;;;;;;;;;;;23.92;44.47;101421.47;7401791;19;1755;-41
2023/09/26 07:03:43;;;;;;;;;;;;;;;23.81;44.61;101413.56;7400584;19;1328;-40
2023/09/26 07:06:15;;;;;;;;;;;;;;;23.90;44.53;101428.03;7382860;19;1854;-40
2023/09/26 07:08:44;;;;;;;;;;;;;;;23.85;45.41;101409.56;7400658;19;1430;-40
2023/09/26 07:11:13;;;;;;;;;;;;;;;23.92;44.98;101407.97;7399354;19;1402;-40
2023/09/26 07:13:41;;;;;;;;;;;;;;;24.03;44.92;101417.69;7400432;19;1305;-40
2023/09/26 07:16:10;;;;;;;;;;;;;;;23.97;45.05;101407.50;7400981;19;1414;-41
2023/09/26 07:18:39;;;;;;;;;;;;;;;24.11;45.20;101409.66;7398392;19;1414;-40
2023/09/26 07:21:09;;;;;;;;;;;;;;;24.18;45.57;101410.75;7400380;19;1405;-41
2023/09/26 07:23:40;;;;;;;;;;;;;;;24.06;46.86;101401.19;7398530;19;1264;-40
2023/09/26 07:26:09;;;;;;;;;;;;;;;24.16;46.61;101401.13;7399031;19;1841;-40
2023/09/26 07:28:37;;;;;;;;;;;;;;;24.17;46.01;101398.28;7400925;19;1411;-40
2023/09/26 07:31:08;;;;;;;;;;;;;;;24.24;45.94;101411.16;7400524;19;1352;-41
2023/09/26 07:33:37;;;;;;;;;;;;;;;24.08;47.05;101414.56;7396384;19;1353;-41
2023/09/26 07:36:06;;;;;;;;;;;;;;;24.18;47.04;101405.38;7398027;19;1295;-41
2023/09/26 07:38:34;;;;;;;;;;;;;;;24.24;46.55;101405.75;7398476;19;1752;-41
2023/09/26 07:41:05;;;;;;;;;;;;;;;24.22;47.16;101400.50;7400760;19;1586;-41
2023/09/26 07:43:34;;;;;;;;;;;;;;;24.28;47.32;101404.44;7395252;19;1383;-41
2023/09/26 07:46:05;;;;;;;;;;;;;;;24.48;46.69;101422.19;7397682;19;1841;-41
2023/09/26 07:48:34;;;;;;;;;;;;;;;24.49;46.50;101406.81;7398405;19;1487;-41
2023/09/26 07:51:02;;;;;;;;;;;;;;;24.52;46.29;101398.44;7400537;19;1807;-41
2023/09/26 07:53:30;;;;;;;;;;;;;;;24.56;46.32;101402.50;7400669;19;1465;-40
2023/09/26 07:55:59;;;;;;;;;;;;;;;24.72;46.50;101404.50;7399740;19;1712;-41
2023/09/26 07:58:30;;;;;;;;;;;;;;;24.61;46.86;101392.94;7399555;19;1502;-41
2023/09/26 08:01:00;;;;;;;;;;;;;;;24.46;47.56;101405.28;7397570;19;1273;-40
2023/09/26 08:03:29;;;;;;;;;;;;;;;24.66;46.92;101413.25;7397903;19;1433;-41
2023/09/26 08:06:00;;;;;;;;;;;;;;;24.64;47.19;101405.28;7395827;19;1840;-42
2023/09/26 08:08:29;;;;;;;;;;;;;;;24.67;46.57;101410.38;7383204;19;1415;-41
2023/09/26 08:10:57;;;;;;;;;;;;;;;24.63;46.46;101391.91;7397938;19;1518;-41
2023/09/26 08:13:25;;;;;;;;;;;;;;;24.53;47.12;101397.41;7395609;19;1676;-41
2023/09/26 08:15:56;;;;;;;;;;;;;;;24.75;46.62;101388.81;7397750;19;1572;-41
2023/09/26 08:18:24;;;;;;;;;;;;;;;24.77;46.48;101384.09;7396060;19;1422;-40
2023/09/26 08:20:57;;;;;;;;;;;;;;;24.79;46.24;101387.47;7396724;19;1482;-41
2023/09/26 08:23:25;;;;;;;;;;;;;;;24.83;46.64;101398.84;7395887;19;1323;-41
2023/09/26 08:25:57;;;;;;;;;;;;;;;24.91;46.26;101373.66;7395390;19;1841;-41
2023/09/26 08:28:25;;;;;;;;;;;;;;;25.07;46.28;101362.09;7397474;19;1332;-41
2023/09/26 08:30:57;;;;;;;;;;;;;;;25.16;45.80;101378.19;7396525;19;1661;-41
2023/09/26 08:33:26;;;;;;;;;;;;;;;25.09;45.69;101392.53;7395291;19;1355;-42
2023/09/26 08:35:54;;;;;;;;;;;;;;;25.19;45.49;101391.44;7396809;19;1661;-40
2023/09/26 08:38:23;;;;;;;;;;;;;;;24.91;46.27;101398.00;7396094;19;1368;-41
2023/09/26 08:40:52;;;;;;;;;;;;;;;24.81;46.57;101380.06;7395206;19;1593;-41
2023/09/26 08:43:24;;;;;;;;;;;;;;;25.00;45.99;101375.41;7394474;19;1494;-41
2023/09/26 08:45:53;;;;;;;;;;;;;;;25.05;45.84;101380.34;7398047;19;1863;-41
2023/09/26 08:48:24;;;;;;;;;;;;;;;25.05;45.93;101378.50;7394959;19;1305;-41
2023/09/26 08:50:52;;;;;;;;;;;;;;;24.96;46.23;101374.88;7395588;19;1632;-41
2023/09/26 08:53:21;;;;;;;;;;;;;;;25.08;45.98;101374.63;7396652;19;1404;-40
2023/09/26 08:55:49;;;;;;;;;;;;;;;25.10;45.82;101378.00;7395986;19;1596;-40
2023/09/26 08:58:18;;;;;;;;;;;;;;;25.09;45.46;101370.88;7389236;19;1937;-44
2023/09/26 09:00:46;;;;;;;;;;;;;;;25.12;45.70;101368.72;7395002;19;1356;-44
2023/09/26 09:03:15;;;;;;;;;;;;;;;25.18;45.53;101378.03;7394812;19;1326;-43
2023/09/26 09:05:47;;;;;;;;;;;;;;;25.20;45.25;101370.59;7394847;19;1881;-43
2023/09/26 09:08:19;;;;;;;;;;;;;;;25.22;45.42;101368.63;7380699;19;1388;-43
2023/09/26 09:10:51;;;;;;;;;;;;;;;25.24;45.45;101384.72;7395847;19;1380;-43
2023/09/26 09:13:32;;;;;;;;;;;;;;;25.16;45.70;101372.78;7393074;19;1276;-43
2023/09/26 09:16:11;;;;;;;;;;;;;;;25.10;46.02;101369.88;7393713;19;1562;-44
2023/09/26 09:18:41;;;;;;;;;;;;;;;25.06;46.18;101372.06;7389460;19;1221;-41
2023/09/26 09:21:30;;;;;;;;;;;;;;;25.14;46.11;101369.41;7389499;19;1728;-41
2023/09/26 09:23:58;;;;;;;;;;;;;;;25.12;45.79;101382.25;7392371;19;1429;-40
2023/09/26 09:26:29;;;;;;;;;;;;;;;25.23;45.75;101378.47;7393435;19;1864;-40
2023/09/26 09:28:59;;;;;;;;;;;;;;;25.26;45.82;101361.88;7394439;19;1456;-41
2023/09/26 09:31:29;;;;;;;;;;;;;;;25.22;45.51;101354.25;7395539;19;1276;-41
2023/09/26 09:33:58;;;;;;;;;;;;;;;25.32;45.42;101374.75;7393682;19;1237;-40
2023/09/26 09:36:29;;;;;;;;;;;;;;;25.43;45.46;101361.94;7394283;19;1480;-42
2023/09/26 09:38:58;;;;;;;;;;;;;;;25.20;46.15;101373.31;7392500;19;1482;-41
2023/09/26 09:41:26;;;;;;;;;;;;;;;25.33;45.82;101360.22;7395562;19;1410;-41
2023/09/26 09:43:54;;;;;;;;;;;;;;;25.34;45.55;101358.34;7393282;19;1412;-42
2023/09/26 09:46:25;;;;;;;;;;;;;;;25.34;44.99;101353.78;7392576;19;1861;-41
2023/09/26 09:48:55;;;;;;;;;;;;;;;25.44;45.11;101353.66;7391697;19;1344;-42
2023/09/26 09:51:24;;;;;;;;;;;;;;;25.36;45.13;101340.09;7394740;19;1498;-49
2023/09/26 09:53:58;;;;;;;;;;;;;;;25.42;45.53;101349.41;7394734;19;1404;-41
2023/09/26 09:56:27;;;;;;;;;;;;;;;25.42;46.99;101346.72;7396085;19;1536;-41
2023/09/26 09:59:01;;;;;;;;;;;;;;;25.40;45.87;101349.56;7391140;19;1418;-42
2023/09/26 10:01:30;;;;;;;;;;;;;;;25.47;45.16;101349.78;7391747;19;1259;-38
2023/09/26 10:03:58;;;;;;;;;;;;;;;25.46;44.60;101357.03;7390058;19;1320;-38
2023/09/26 10:06:27;;;;;;;;;;;;;;;25.51;44.51;101343.03;7391909;19;2361;-38
2023/09/26 10:08:58;;;;;;;;;;;;;;;25.50;44.72;101336.75;7375948;19;1700;-38
2023/09/26 10:11:28;;;;;;;;;;;;;;;25.48;44.02;101343.34;7390965;19;1622;-38
2023/09/26 10:13:59;;;;;;;;;;;;;;;25.51;44.26;101337.63;7391945;19;1672;-38
2023/09/26 10:16:29;;;;;;;;;;;;;;;25.54;43.73;101334.56;7391202;19;1680;-38
2023/09/26 10:18:59;;;;;;;;;;;;;;;25.53;43.90;101327.47;7391108;19;1705;-39
2023/09/26 10:21:28;;;;;;;;;;;;;;;25.55;43.85;101328.16;7392210;19;1671;-38
2023/09/26 10:24:12;;;;;;;;;;;;;;;25.64;44.03;101331.72;7391674;19;1340;-38
2023/09/26 10:26:47;;;;;;;;;;;;;;;25.59;43.54;101310.53;7390486;19;1850;-38
2023/09/26 10:29:23;;;;;;;;;;;;;;;25.55;43.45;101322.72;7392044;19;1577;-38
2023/09/26 10:31:53;;;;;;;;;;;;;;;25.42;43.46;101306.94;7391444;19;1395;-38
2023/09/26 10:34:22;;;;;;;;;;;;;;;25.59;43.37;101303.25;7390752;19;1538;-39
2023/09/26 10:36:50;;;;;;;;;;;;;;;25.57;43.97;101315.28;7395990;19;1589;-38
2023/09/26 10:39:18;;;;;;;;;;;;;;;25.57;43.97;101312.56;7395865;19;1581;-38
2023/09/26 10:41:49;;;;;;;;;;;;;;;25.54;43.43;101299.34;7395814;19;1675;-38
2023/09/26 10:44:17;;;;;;;;;;;;;;;25.52;43.36;101313.06;7395984;19;1550;-38
2023/09/26 10:46:46;;;;;;;;;;;;;;;25.50;43.69;101306.13;7394089;19;1844;-38
2023/09/26 10:49:15;;;;;;;;;;;;;;;25.43;43.83;101324.03;7396122;19;1582;-38
2023/09/26 10:51:43;;;;;;;;;;;;;;;25.49;43.55;101296.31;7388719;19;1743;-38
2023/09/26 10:54:11;;;;;;;;;;;;;;;25.61;43.33;101308.53;7395408;19;1655;-39
2023/09/26 10:56:47;;;;;;;;;;;;;;;25.57;43.36;101304.44;7393653;19;1324;-40
2023/09/26 10:59:21;;;;;;;;;;;;;;;25.63;43.11;101298.38;7401663;19;1604;-42
2023/09/26 11:01:49;;;;;;;;;;;;;;;25.64;42.97;101293.78;7400946;19;1340;-41
2023/09/26 11:04:17;;;;;;;;;;;;;;;25.55;42.81;101291.06;7402059;19;1392;-41
2023/09/26 11:06:46;;;;;;;;;;;;;;;25.50;42.52;101289.88;7400070;19;1863;-41
2023/09/26 11:09:15;;;;;;;;;;;;;;;25.51;42.09;101297.84;7387015;19;1664;-41
2023/09/26 11:11:44;;;;;;;;;;;;;;;25.54;42.72;101297.47;7401202;19;1376;-42
2023/09/26 11:14:13;;;;;;;;;;;;;;;25.49;42.49;101301.72;7401631;19;1633;-41
2023/09/26 11:16:46;;;;;;;;;;;;;;;25.49;41.52;101304.44;7399198;19;1522;-41
2023/09/26 11:19:14;;;;;;;;;;;;;;;25.49;41.50;101280.06;7402317;19;1526;-41
2023/09/26 11:21:42;;;;;;;;;;;;;;;25.47;42.16;101292.94;7401190;19;1475;-42
2023/09/26 11:24:20;;;;;;;;;;;;;;;25.53;41.30;101286.84;7401120;19;1604;-41
2023/09/26 11:26:48;;;;;;;;;;;;;;;25.55;41.21;101290.22;7400503;19;1849;-41
2023/09/26 11:29:17;;;;;;;;;;;;;;;25.59;41.22;101280.75;7401694;19;1679;-44
2023/09/26 11:31:48;;;;;;;;;;;;;;;25.68;41.34;101293.28;7399506;19;1514;-41
2023/09/26 11:34:18;;;;;;;;;;;;;;;25.53;40.78;101281.44;7398283;19;1660;-42
2023/09/26 11:36:46;;;;;;;;;;;;;;;25.51;40.28;101267.19;7400958;19;1814;-41
2023/09/26 11:39:19;;;;;;;;;;;;;;;25.62;40.85;101275.00;7400212;19;1585;-41
2023/09/26 11:41:48;;;;;;;;;;;;;;;25.67;40.61;101269.94;7399340;19;1217;-41
2023/09/26 11:44:17;;;;;;;;;;;;;;;25.67;40.52;101256.38;7401787;19;1632;-41
2023/09/26 11:46:50;;;;;;;;;;;;;;;25.67;40.66;101267.22;7400484;19;1830;-42
2023/09/26 11:49:19;;;;;;;;;;;;;;;25.62;40.53;101260.59;7401002;19;1581;-41
2023/09/26 11:51:50;;;;;;;;;;;;;;;25.66;40.39;101262.81;7397887;19;1704;-41
2023/09/26 11:54:18;;;;;;;;;;;;;;;25.74;40.29;101268.22;7400794;19;1549;-41
2023/09/26 11:56:47;;;;;;;;;;;;;;;25.75;39.97;101252.84;7399591;19;1581;-41
2023/09/26 11:59:15;;;;;;;;;;;;;;;25.74;40.33;101245.72;7398242;19;1585;-41
2023/09/26 12:01:44;;;;;;;;;;;;;;;25.73;40.39;101242.16;7397894;19;1460;-41
2023/09/26 12:04:16;;;;;;;;;;;;;;;25.68;40.47;101216.59;7398157;19;1358;-41
2023/09/26 12:06:44;;;;;;;;;;;;;;;25.77;40.60;101232.69;7397424;19;1843;-41
2023/09/26 12:09:20;;;;;;;;;;;;;;;25.77;40.34;101229.97;7382707;19;1523;-42
2023/09/26 12:11:48;;;;;;;;;;;;;;;25.80;40.01;101226.06;7398582;19;1307;-41
2023/09/26 12:14:17;;;;;;;;;;;;;;;25.84;39.82;101219.28;7400415;19;1380;-41
2023/09/26 12:16:50;;;;;;;;;;;;;;;25.86;39.82;101227.25;7399319;19;1496;-41
2023/09/26 12:19:22;;;;;;;;;;;;;;;25.85;39.77;101220.16;7398918;19;1547;-41
2023/09/26 12:21:51;;;;;;;;;;;;;;;25.82;39.50;101212.38;7398591;19;1762;-41
2023/09/26 12:24:19;;;;;;;;;;;;;;;25.68;39.97;101217.44;7398116;19;1499;-41
2023/09/26 12:26:48;;;;;;;;;;;;;;;25.76;39.39;101228.25;7398293;19;1848;-41
2023/09/26 12:29:16;;;;;;;;;;;;;;;25.83;38.83;101197.81;7399192;19;1427;-41
2023/09/26 12:31:45;;;;;;;;;;;;;;;25.91;38.87;101211.38;7396775;19;1790;-41
2023/09/26 12:34:14;;;;;;;;;;;;;;;25.92;37.73;101194.94;7396484;19;1639;-40
2023/09/26 12:36:45;;;;;;;;;;;;;;;26.08;36.67;101199.47;7397755;19;1643;-41
2023/09/26 12:39:14;;;;;;;;;;;;;;;26.02;36.75;101208.31;7398571;19;1311;-41
2023/09/26 12:41:42;;;;;;;;;;;;;;;25.98;37.40;101190.69;7397378;19;1524;-41
2023/09/26 12:44:10;;;;;;;;;;;;;;;25.91;36.58;101197.84;7398027;19;1360;-41
2023/09/26 12:46:39;;;;;;;;;;;;;;;25.91;36.77;101203.25;7398244;19;1847;-41
2023/09/26 12:49:08;;;;;;;;;;;;;;;25.91;36.50;101193.25;7398834;19;1500;-41
2023/09/26 12:51:36;;;;;;;;;;;;;;;25.98;36.78;101204.25;7398110;19;1651;-41
2023/09/26 12:54:08;;;;;;;;;;;;;;;26.02;36.49;101211.00;7395685;19;1252;-41
2023/09/26 12:56:36;;;;;;;;;;;;;;;25.99;36.69;101201.38;7398037;19;1325;-41
2023/09/26 12:59:04;;;;;;;;;;;;;;;25.99;36.72;101195.94;7396279;19;1486;-41